MUCF/CFG METAR and TAF weather

Enter ICAO airport designator
Station Type Date Time Source
MUCF METAR 2020/04/03 06:59 UTC NOAA

MUCF 030659Z AUTO 07004KT 040V100 22/20 Q1013


Station Type Date Time Source
MUCF Decoded METAR 2020/04/03 06:59 UTC NOAA

Cienfuegos, Las Villas, Cuba (MUCF) 22-09N 080-24W 39M
Apr 03, 2020 - 02:59 AM EDT / 2020.04.03 0659 UTC
Wind: from the ENE (070 degrees) at 5 MPH (4 KT) (direction variable):0
Temperature: 71 F (22 C)
Dew Point: 68 F (20 C)
Relative Humidity: 88%
Pressure (altimeter): 29.91 in. Hg (1013 hPa)
ob: MUCF 030659Z AUTO 07004KT 040V100 22/20 Q1013
cycle: 7

Station Type Date Time Source
MUCF TAF 2020/03/27 18:03 UTC NOAA

MUCF 271700Z 2718/2806 19008KT 9000 SCT020
BECMG 2801/2803 VRB03KT

Example: see airport list